createdAt,value
2017-10-04T00:01:15.545Z,20.69
2017-10-04T00:05:19.027Z,20.69
2017-10-04T00:09:22.492Z,20.70
2017-10-04T00:13:26.747Z,20.69
2017-10-04T00:17:30.211Z,20.68
2017-10-04T00:21:33.695Z,20.69
2017-10-04T00:25:37.172Z,20.68
2017-10-04T00:29:40.751Z,20.68
2017-10-04T00:33:44.962Z,20.67
2017-10-04T00:37:48.500Z,20.67
2017-10-04T00:41:51.955Z,20.67
2017-10-04T00:45:55.430Z,20.66
2017-10-04T00:49:58.883Z,20.65
2017-10-04T00:54:02.371Z,20.65
2017-10-04T00:58:05.828Z,20.65
2017-10-04T01:02:09.310Z,20.65
2017-10-04T01:06:12.800Z,20.65
2017-10-04T01:10:16.284Z,20.64
2017-10-04T01:14:19.748Z,20.64
2017-10-04T01:18:24.287Z,20.63
2017-10-04T01:22:28.510Z,20.63
2017-10-04T01:26:33.148Z,20.63
2017-10-04T01:30:37.368Z,20.62
2017-10-04T01:34:41.905Z,20.61
2017-10-04T01:38:46.126Z,20.62
2017-10-04T01:42:49.940Z,20.61
2017-10-04T01:46:54.171Z,20.61
2017-10-04T01:50:57.981Z,20.61
2017-10-04T01:55:02.207Z,20.60
2017-10-04T01:59:06.455Z,20.60
2017-10-04T02:03:09.919Z,20.60
2017-10-04T02:07:13.760Z,20.59
2017-10-04T02:11:17.201Z,20.59
2017-10-04T02:15:20.976Z,20.58
2017-10-04T02:19:25.195Z,20.58
2017-10-04T02:23:28.658Z,20.58
2017-10-04T02:27:32.081Z,20.58
2017-10-04T02:31:35.903Z,20.57
2017-10-04T02:35:39.354Z,20.57
2017-10-04T02:39:42.853Z,20.56
2017-10-04T02:43:46.315Z,20.56
2017-10-04T02:47:50.167Z,20.56
2017-10-04T02:51:54.390Z,20.56
2017-10-04T02:55:58.928Z,20.56
2017-10-04T03:00:02.388Z,20.54
2017-10-04T03:04:05.881Z,20.55
2017-10-04T03:08:09.332Z,20.54
2017-10-04T03:12:13.578Z,20.54
2017-10-04T03:16:17.036Z,20.53
2017-10-04T03:20:20.778Z,20.52
2017-10-04T03:24:25.000Z,20.52
2017-10-04T03:28:28.490Z,20.52
2017-10-04T03:32:32.000Z,20.51
2017-10-04T03:36:35.480Z,20.52
2017-10-04T03:40:38.926Z,20.51
2017-10-04T03:44:42.402Z,20.51
2017-10-04T03:48:45.859Z,20.50
2017-10-04T03:52:50.392Z,20.49
2017-10-04T03:56:54.606Z,20.49
2017-10-04T04:00:59.161Z,20.49
2017-10-04T04:05:02.618Z,20.49
2017-10-04T04:09:06.091Z,20.48
2017-10-04T04:13:09.542Z,20.48
2017-10-04T04:17:13.023Z,20.48
2017-10-04T04:21:16.469Z,20.47
2017-10-04T04:25:21.017Z,20.47
2017-10-04T04:29:25.230Z,20.47
2017-10-04T04:33:29.474Z,20.47
2017-10-04T04:37:32.935Z,20.45
2017-10-04T04:41:36.413Z,20.45
2017-10-04T04:45:39.867Z,20.45
2017-10-04T04:49:43.707Z,20.45
2017-10-04T04:53:47.927Z,20.44
2017-10-04T04:57:52.174Z,20.44
2017-10-04T05:01:55.635Z,20.44
2017-10-04T05:05:59.168Z,20.44
2017-10-04T05:10:03.401Z,20.43
2017-10-04T05:14:07.651Z,20.42
2017-10-04T05:18:11.119Z,20.42
2017-10-04T05:22:15.498Z,20.41
2017-10-04T05:26:18.961Z,20.41
2017-10-04T05:30:23.208Z,20.41
2017-10-04T05:34:26.663Z,20.40
2017-10-04T05:38:30.510Z,20.40
2017-10-04T05:42:34.729Z,20.39
2017-10-04T05:46:38.996Z,20.39
2017-10-04T05:50:42.449Z,20.39
2017-10-04T05:54:45.922Z,20.38
2017-10-04T05:58:49.382Z,20.40
2017-10-04T06:02:53.631Z,20.41
2017-10-04T06:06:57.087Z,20.43
2017-10-04T06:11:00.567Z,20.46
2017-10-04T06:15:04.049Z,20.47
2017-10-04T06:19:07.535Z,20.49
2017-10-04T06:23:11.754Z,20.51
2017-10-04T06:27:15.995Z,20.54
2017-10-04T06:31:20.252Z,20.55
2017-10-04T06:35:23.724Z,20.56
2017-10-04T06:39:28.079Z,20.57
2017-10-04T06:43:31.568Z,20.57
2017-10-04T06:47:35.018Z,20.58
2017-10-04T06:51:38.499Z,20.59
2017-10-04T06:55:41.951Z,20.60
2017-10-04T06:59:45.705Z,20.60
2017-10-04T07:03:49.154Z,20.60
2017-10-04T07:07:52.924Z,20.61
2017-10-04T07:11:56.459Z,20.61
2017-10-04T07:15:59.939Z,20.61
2017-10-04T07:20:03.399Z,20.61
2017-10-04T07:24:07.251Z,20.61
2017-10-04T07:28:11.491Z,20.62
2017-10-04T07:32:14.970Z,20.62
2017-10-04T07:36:18.418Z,20.62
2017-10-04T07:40:22.202Z,20.61
2017-10-04T07:44:26.414Z,20.61
2017-10-04T07:48:29.894Z,20.60
2017-10-04T07:52:33.351Z,20.61
2017-10-04T07:56:37.648Z,20.61
2017-10-04T08:00:41.101Z,20.61
2017-10-04T08:04:44.577Z,20.61
2017-10-04T08:08:48.790Z,20.63
2017-10-04T08:12:52.274Z,20.63
2017-10-04T08:16:55.735Z,20.63
2017-10-04T08:20:59.214Z,20.63
2017-10-04T08:25:02.678Z,20.63
2017-10-04T08:29:06.154Z,20.65
2017-10-04T08:33:10.384Z,20.64
2017-10-04T08:37:14.186Z,20.65
2017-10-04T08:41:18.402Z,20.67
2017-10-04T08:45:22.642Z,20.67
2017-10-04T08:49:26.859Z,20.67
2017-10-04T08:53:31.115Z,20.67
2017-10-04T08:57:34.579Z,20.67
2017-10-04T09:01:38.071Z,20.67
2017-10-04T09:10:14.747Z,20.67
2017-10-04T09:14:18.268Z,20.66
2017-10-04T09:18:22.483Z,20.66
2017-10-04T09:22:25.944Z,20.65
2017-10-04T09:26:30.187Z,20.65
2017-10-04T09:30:34.428Z,20.63
2017-10-04T09:34:37.922Z,20.63
2017-10-04T09:38:41.370Z,20.63
2017-10-04T09:42:44.851Z,20.63
2017-10-04T09:46:48.310Z,20.63
2017-10-04T09:50:51.787Z,20.63
2017-10-04T09:54:55.288Z,20.63
2017-10-04T09:58:58.817Z,20.63
2017-10-04T10:03:02.347Z,20.62
2017-10-04T10:07:05.847Z,20.62
2017-10-04T10:11:09.298Z,20.62
2017-10-04T10:15:13.108Z,20.61
2017-10-04T10:19:16.563Z,20.61
2017-10-04T10:23:20.041Z,20.61
2017-10-04T10:27:23.497Z,20.60
2017-10-04T10:31:26.988Z,20.60
2017-10-04T10:35:30.418Z,20.60
2017-10-04T10:39:34.240Z,20.60
2017-10-04T10:43:38.458Z,20.60
2017-10-04T10:47:41.931Z,20.61
2017-10-04T10:51:45.422Z,20.61
2017-10-04T10:55:48.907Z,20.60
2017-10-04T10:59:52.375Z,20.61
2017-10-04T11:03:56.128Z,20.62
2017-10-04T11:07:59.588Z,20.61
2017-10-04T11:12:03.083Z,20.62
2017-10-04T11:16:06.534Z,20.61
2017-10-04T11:20:10.819Z,20.61
2017-10-04T11:24:14.280Z,20.61
2017-10-04T11:28:18.099Z,20.61
2017-10-04T11:32:21.551Z,20.60
2017-10-04T11:36:25.039Z,20.60
2017-10-04T11:40:28.491Z,20.60
2017-10-04T11:44:32.322Z,20.60
2017-10-04T11:48:36.543Z,20.61
2017-10-04T11:52:40.782Z,20.61
2017-10-04T11:56:45.016Z,20.62
2017-10-04T12:00:48.859Z,20.63
2017-10-04T12:04:52.338Z,20.64
2017-10-04T12:08:56.134Z,20.63
2017-10-04T12:13:00.354Z,20.64
2017-10-04T12:17:04.900Z,20.65
2017-10-04T12:21:09.129Z,20.66
2017-10-04T12:25:12.607Z,20.66
2017-10-04T12:29:16.063Z,20.67
2017-10-04T12:33:19.851Z,20.67
2017-10-04T12:37:24.071Z,20.68
2017-10-04T12:41:28.323Z,20.68
2017-10-04T12:45:31.771Z,20.70
2017-10-04T12:49:35.255Z,20.70
2017-10-04T12:53:38.722Z,20.70
2017-10-04T12:57:43.259Z,20.70
2017-10-04T13:01:47.490Z,20.70
2017-10-04T13:05:50.975Z,20.71
2017-10-04T13:09:55.216Z,20.71
2017-10-04T13:13:59.492Z,20.71
2017-10-04T13:18:02.974Z,20.73
2017-10-04T13:22:06.463Z,20.73
2017-10-04T13:26:10.105Z,20.74
2017-10-04T13:30:13.602Z,20.75
2017-10-04T13:34:17.103Z,20.76
2017-10-04T13:38:20.582Z,20.75
2017-10-04T13:42:24.846Z,20.76
2017-10-04T13:46:28.334Z,20.76
2017-10-04T13:50:31.791Z,20.78
2017-10-04T13:54:35.270Z,20.78
2017-10-04T13:58:39.227Z,20.80
2017-10-04T14:02:42.712Z,20.80
2017-10-04T14:11:30.101Z,20.81
2017-10-04T14:15:32.807Z,20.81
2017-10-04T14:19:36.353Z,20.82
2017-10-04T14:23:39.060Z,20.81
2017-10-04T14:27:41.810Z,20.80
2017-10-04T14:31:45.287Z,20.79
2017-10-04T14:35:48.023Z,20.79
2017-10-04T14:39:50.723Z,20.77
2017-10-04T14:43:53.718Z,20.76
2017-10-04T14:47:56.439Z,20.76
2017-10-04T14:51:59.575Z,20.75
2017-10-04T14:56:03.046Z,20.75
2017-10-04T15:04:02.367Z,20.77
2017-10-04T15:08:05.814Z,20.79
2017-10-04T15:12:10.084Z,20.83
2017-10-04T15:16:13.541Z,20.90
2017-10-04T15:20:17.019Z,20.92
2017-10-04T15:24:20.642Z,20.95
2017-10-04T15:28:24.931Z,20.99
2017-10-04T15:32:28.398Z,21.02
2017-10-04T15:36:32.762Z,21.05
2017-10-04T15:40:36.663Z,21.06
2017-10-04T15:44:40.146Z,21.07
2017-10-04T15:48:44.377Z,21.08
2017-10-04T15:52:48.628Z,21.08
2017-10-04T15:56:52.110Z,21.08
2017-10-04T16:00:56.362Z,21.08
2017-10-04T16:04:59.820Z,21.08
2017-10-04T16:09:03.297Z,21.09
2017-10-04T16:13:06.753Z,21.08
2017-10-04T16:17:10.676Z,21.08
2017-10-04T16:21:14.895Z,21.09
2017-10-04T16:25:18.500Z,21.08
2017-10-04T16:29:21.960Z,21.08
2017-10-04T16:33:25.440Z,21.08
2017-10-04T16:37:29.666Z,21.07
2017-10-04T16:41:34.209Z,21.07
2017-10-04T16:45:37.667Z,21.07
2017-10-04T16:49:41.415Z,21.06
2017-10-04T16:53:45.647Z,21.05
2017-10-04T16:57:49.452Z,21.05
2017-10-04T17:01:53.679Z,21.04
2017-10-04T17:05:58.204Z,21.03
2017-10-04T17:10:02.425Z,21.03
2017-10-04T17:14:06.961Z,21.02
2017-10-04T17:18:11.197Z,21.02
2017-10-04T17:22:15.822Z,21.02
2017-10-04T17:26:20.039Z,21.01
2017-10-04T17:30:24.583Z,21.01
2017-10-04T17:34:28.840Z,21.00
2017-10-04T17:38:32.619Z,21.00
2017-10-04T17:42:36.847Z,21.00
2017-10-04T17:46:41.370Z,20.99
2017-10-04T17:50:45.603Z,20.99
2017-10-04T17:54:50.135Z,20.99
2017-10-04T17:58:54.372Z,20.98
2017-10-04T18:02:58.189Z,20.97
2017-10-04T18:07:01.656Z,20.98
2017-10-04T18:11:05.506Z,20.97
2017-10-04T18:15:09.738Z,20.97
2017-10-04T18:19:13.543Z,20.97
2017-10-04T18:23:17.765Z,20.96
2017-10-04T18:27:22.310Z,20.96
2017-10-04T18:31:25.767Z,20.96
2017-10-04T18:35:29.626Z,20.96
2017-10-04T18:39:33.854Z,20.96
2017-10-04T18:43:38.483Z,20.95
2017-10-04T18:47:41.954Z,20.95
2017-10-04T18:51:45.718Z,20.94
2017-10-04T18:55:49.177Z,20.94
2017-10-04T18:59:53.031Z,20.95
2017-10-04T19:03:57.256Z,20.94
2017-10-04T19:08:01.883Z,20.94
2017-10-04T19:12:06.115Z,20.94
2017-10-04T19:16:10.648Z,20.94
2017-10-04T19:20:14.113Z,20.94
2017-10-04T19:24:17.961Z,20.93
2017-10-04T19:28:22.178Z,20.93
2017-10-04T19:32:26.008Z,20.93
2017-10-04T19:36:30.228Z,20.92
2017-10-04T19:40:34.769Z,20.92
2017-10-04T19:44:38.997Z,20.93
2017-10-04T19:48:42.818Z,20.92
2017-10-04T19:52:46.286Z,20.92
2017-10-04T19:56:50.041Z,20.92
2017-10-04T20:00:53.508Z,20.92
2017-10-04T20:04:57.359Z,20.92
2017-10-04T20:09:00.967Z,20.91
2017-10-04T20:13:05.462Z,20.91
2017-10-04T20:17:08.926Z,20.91
2017-10-04T20:21:12.719Z,20.90
2017-10-04T20:25:16.956Z,20.90
2017-10-04T20:29:20.711Z,20.91
2017-10-04T20:33:24.170Z,20.91
2017-10-04T20:37:27.971Z,20.91
2017-10-04T20:41:32.183Z,20.90
2017-10-04T20:45:36.011Z,20.91
2017-10-04T20:49:40.232Z,20.92
2017-10-04T20:53:44.776Z,20.91
2017-10-04T20:57:48.994Z,20.92
2017-10-04T21:01:53.538Z,20.91
2017-10-04T21:05:57.000Z,20.90
2017-10-04T21:10:00.861Z,20.90
2017-10-04T21:14:04.323Z,20.91
2017-10-04T21:18:08.194Z,20.92
2017-10-04T21:22:11.658Z,20.93
2017-10-04T21:26:15.504Z,20.92
2017-10-04T21:30:19.782Z,20.93
2017-10-04T21:34:23.548Z,20.92
2017-10-04T21:38:27.758Z,20.92
2017-10-04T21:42:32.294Z,20.91
2017-10-04T21:46:36.520Z,20.91
2017-10-04T21:50:41.055Z,20.91
2017-10-04T21:54:45.267Z,20.90
2017-10-04T21:58:49.099Z,20.89
2017-10-04T22:02:53.326Z,20.89
2017-10-04T22:06:57.836Z,20.88
2017-10-04T22:11:01.284Z,20.88
2017-10-04T22:15:05.071Z,20.87
2017-10-04T22:19:09.290Z,20.87
2017-10-04T22:23:13.835Z,20.86
2017-10-04T22:27:18.200Z,20.86
2017-10-04T22:31:21.974Z,20.85
2017-10-04T22:35:26.203Z,20.84
2017-10-04T22:39:30.735Z,20.83
2017-10-04T22:43:34.946Z,20.82
2017-10-04T22:47:39.496Z,20.82
2017-10-04T22:51:42.975Z,20.81
2017-10-04T22:55:46.814Z,20.81
2017-10-04T22:59:51.031Z,20.80
2017-10-04T23:03:55.524Z,20.79
2017-10-04T23:07:58.987Z,20.78
2017-10-04T23:12:02.795Z,20.77
2017-10-04T23:16:07.023Z,20.77
2017-10-04T23:20:10.826Z,20.76
2017-10-04T23:24:15.046Z,20.76
2017-10-04T23:28:19.543Z,20.76
2017-10-04T23:32:22.999Z,20.75
2017-10-04T23:36:27.536Z,20.75
2017-10-04T23:40:30.988Z,20.74
2017-10-04T23:44:34.749Z,20.73
2017-10-04T23:48:38.971Z,20.73
2017-10-04T23:52:43.507Z,20.73
2017-10-04T23:56:47.747Z,20.73
